createdAt,value
2022-07-28T00:01:20.014Z,22.88
2022-07-28T00:03:49.007Z,22.90
2022-07-28T00:06:16.761Z,22.86
2022-07-28T00:08:44.175Z,22.82
2022-07-28T00:11:11.501Z,22.80
2022-07-28T00:13:38.821Z,22.77
2022-07-28T00:16:07.572Z,22.82
2022-07-28T00:18:34.925Z,22.75
2022-07-28T00:21:02.378Z,22.63
2022-07-28T00:23:38.914Z,22.63
2022-07-28T00:26:08.116Z,22.64
2022-07-28T00:28:35.996Z,22.68
2022-07-28T00:31:07.034Z,22.69
2022-07-28T00:33:37.274Z,22.62
2022-07-28T00:36:04.754Z,22.65
2022-07-28T00:38:34.171Z,22.71
2022-07-28T00:41:11.570Z,22.66
2022-07-28T00:43:38.826Z,22.67
2022-07-28T00:46:06.180Z,22.68
2022-07-28T00:48:33.672Z,22.78
2022-07-28T00:51:00.957Z,22.91
2022-07-28T00:53:29.300Z,22.95
2022-07-28T00:56:02.684Z,22.87
2022-07-28T00:58:33.654Z,22.86
2022-07-28T01:01:00.952Z,22.95
2022-07-28T01:03:29.193Z,22.94
2022-07-28T01:06:04.108Z,22.94
2022-07-28T01:08:50.085Z,22.88
2022-07-28T01:11:26.333Z,22.91
2022-07-28T01:13:53.690Z,22.83
2022-07-28T01:16:22.617Z,22.78
2022-07-28T01:18:51.459Z,22.77
2022-07-28T01:21:24.012Z,22.77
2022-07-28T01:23:58.750Z,22.78
2022-07-28T01:26:31.775Z,22.74
2022-07-28T01:29:05.223Z,22.72
2022-07-28T01:31:36.649Z,22.70
2022-07-28T01:34:09.533Z,22.71
2022-07-28T01:36:43.203Z,22.70
2022-07-28T01:39:10.820Z,22.75
2022-07-28T01:41:39.603Z,22.82
2022-07-28T01:44:08.677Z,22.85
2022-07-28T01:46:37.414Z,22.79
2022-07-28T01:49:06.588Z,22.73
2022-07-28T01:51:35.310Z,22.80
2022-07-28T01:54:03.302Z,22.78
2022-07-28T01:56:32.532Z,22.75
2022-07-28T01:59:05.505Z,22.74
2022-07-28T02:01:36.969Z,22.69
2022-07-28T02:04:08.228Z,22.65
2022-07-28T02:06:37.011Z,22.58
2022-07-28T02:09:05.510Z,22.53
2022-07-28T02:11:40.039Z,22.54
2022-07-28T02:14:18.297Z,22.46
2022-07-28T02:16:48.373Z,22.46
2022-07-28T02:19:16.939Z,22.44
2022-07-28T02:21:47.617Z,22.40
2022-07-28T02:24:17.563Z,22.39
2022-07-28T02:26:55.802Z,22.38
2022-07-28T02:29:48.441Z,22.37
2022-07-28T02:32:27.752Z,22.26
2022-07-28T02:34:58.440Z,22.20
2022-07-28T02:37:26.250Z,22.23
2022-07-28T02:40:00.483Z,22.23
2022-07-28T02:42:30.797Z,22.20
2022-07-28T02:45:00.574Z,22.15
2022-07-28T02:47:30.263Z,22.13
2022-07-28T02:49:58.601Z,22.17
2022-07-28T02:52:26.584Z,22.19
2022-07-28T02:54:54.591Z,22.16
2022-07-28T02:57:22.671Z,22.09
2022-07-28T02:59:50.731Z,22.03
2022-07-28T03:02:21.735Z,21.97
2022-07-28T03:04:59.182Z,21.92
2022-07-28T03:07:27.246Z,21.92
2022-07-28T03:09:54.781Z,21.89
2022-07-28T03:12:22.055Z,21.82
2022-07-28T03:14:49.417Z,21.83
2022-07-28T03:17:17.087Z,21.83
2022-07-28T03:19:44.453Z,21.90
2022-07-28T03:22:12.102Z,21.93
2022-07-28T03:24:42.087Z,21.90
2022-07-28T03:27:23.544Z,21.89
2022-07-28T03:29:54.320Z,21.98
2022-07-28T03:32:22.838Z,22.03
2022-07-28T03:34:50.186Z,22.05
2022-07-28T03:37:20.692Z,22.01
2022-07-28T03:39:48.317Z,22.01
2022-07-28T03:42:17.367Z,22.03
2022-07-28T03:44:47.843Z,22.03
2022-07-28T03:47:15.203Z,22.10
2022-07-28T03:49:45.612Z,22.24
2022-07-28T03:52:12.924Z,22.29
2022-07-28T03:54:40.239Z,22.25
2022-07-28T03:57:07.522Z,22.22
2022-07-28T03:59:34.794Z,22.20
2022-07-28T04:02:02.133Z,22.17
2022-07-28T04:04:29.480Z,22.16
2022-07-28T04:06:56.800Z,22.16
2022-07-28T04:09:24.128Z,22.21
2022-07-28T04:11:51.391Z,22.21
2022-07-28T04:14:19.190Z,22.22
2022-07-28T04:16:46.764Z,22.25
2022-07-28T04:19:14.505Z,22.27
2022-07-28T04:21:41.800Z,22.26
2022-07-28T04:24:10.063Z,22.24
2022-07-28T04:26:37.640Z,22.26
2022-07-28T04:29:05.166Z,22.25
2022-07-28T04:31:32.584Z,22.21
2022-07-28T04:34:00.202Z,22.23
2022-07-28T04:36:27.579Z,22.24
2022-07-28T04:38:56.680Z,22.24
2022-07-28T04:41:23.970Z,22.25
2022-07-28T04:43:51.240Z,22.28
2022-07-28T04:46:19.025Z,22.33
2022-07-28T04:48:46.423Z,22.41
2022-07-28T04:51:13.771Z,22.45
2022-07-28T04:53:41.130Z,22.52
2022-07-28T04:56:08.405Z,22.59
2022-07-28T04:58:35.687Z,22.71
2022-07-28T05:01:03.040Z,22.78
2022-07-28T05:03:35.743Z,22.90
2022-07-28T05:06:03.600Z,22.94
2022-07-28T05:08:30.879Z,23.07
2022-07-28T05:10:58.150Z,23.11
2022-07-28T05:13:30.353Z,23.13
2022-07-28T05:16:01.254Z,23.17
2022-07-28T05:18:28.758Z,23.15
2022-07-28T05:20:56.035Z,23.14
2022-07-28T05:23:23.333Z,23.13
2022-07-28T05:25:50.803Z,23.14
2022-07-28T05:28:18.154Z,23.18
2022-07-28T05:30:45.493Z,23.20
2022-07-28T05:33:14.641Z,23.26
2022-07-28T05:35:41.946Z,23.26
2022-07-28T05:38:11.182Z,23.24
2022-07-28T05:40:38.715Z,23.25
2022-07-28T05:43:06.045Z,23.37
2022-07-28T05:45:34.228Z,23.46
2022-07-28T05:48:01.580Z,23.51
2022-07-28T05:50:28.863Z,23.61
2022-07-28T05:52:56.102Z,23.60
2022-07-28T05:55:23.418Z,23.58
2022-07-28T05:57:51.046Z,23.60
2022-07-28T06:00:19.667Z,23.63
2022-07-28T06:02:49.298Z,23.79
2022-07-28T06:05:18.346Z,23.87
2022-07-28T06:07:46.628Z,24.03
2022-07-28T06:10:15.194Z,24.25
2022-07-28T06:12:43.434Z,24.31
2022-07-28T06:15:14.932Z,24.36
2022-07-28T06:17:42.623Z,24.40
2022-07-28T06:20:10.908Z,24.59
2022-07-28T06:22:44.890Z,24.72
2022-07-28T06:25:16.067Z,24.90
2022-07-28T06:27:45.445Z,25.12
2022-07-28T06:30:12.963Z,25.22
2022-07-28T06:32:40.314Z,25.23
2022-07-28T06:35:07.940Z,25.29
2022-07-28T06:37:35.303Z,25.29
2022-07-28T06:40:02.579Z,25.33
2022-07-28T06:42:29.939Z,25.29
2022-07-28T06:44:59.695Z,25.26
2022-07-28T06:47:27.491Z,25.26
2022-07-28T06:49:54.760Z,25.26
2022-07-28T06:52:22.210Z,25.32
2022-07-28T06:54:53.150Z,25.37
2022-07-28T06:57:33.425Z,25.47
2022-07-28T07:00:03.249Z,25.55
2022-07-28T07:02:30.581Z,25.67
2022-07-28T07:04:58.273Z,25.94
2022-07-28T07:07:26.377Z,26.03
2022-07-28T07:09:53.706Z,26.03
2022-07-28T07:12:20.991Z,26.10
2022-07-28T07:14:48.262Z,26.13
2022-07-28T07:17:15.531Z,26.17
2022-07-28T07:19:42.810Z,26.30
2022-07-28T07:22:10.067Z,26.48
2022-07-28T07:24:38.024Z,26.54
2022-07-28T07:27:05.346Z,26.57
2022-07-28T07:29:32.952Z,26.70
2022-07-28T07:32:00.258Z,26.74
2022-07-28T07:34:27.598Z,26.73
2022-07-28T07:36:54.909Z,26.66
2022-07-28T07:39:22.195Z,26.70
2022-07-28T07:41:49.456Z,26.86
2022-07-28T07:44:17.208Z,26.90
2022-07-28T07:46:44.874Z,26.90
2022-07-28T07:49:12.296Z,26.93
2022-07-28T07:51:39.606Z,26.91
2022-07-28T07:54:06.880Z,26.99
2022-07-28T07:56:37.216Z,26.97
2022-07-28T07:59:04.524Z,27.01
2022-07-28T08:01:31.836Z,27.00
2022-07-28T08:04:10.596Z,26.98
2022-07-28T08:06:38.201Z,26.96
2022-07-28T08:09:07.202Z,27.01
2022-07-28T08:11:34.538Z,27.08
2022-07-28T08:14:01.840Z,27.07
2022-07-28T08:16:29.277Z,27.01
2022-07-28T08:18:58.442Z,26.97
2022-07-28T08:21:26.361Z,26.93
2022-07-28T08:23:55.871Z,26.87
2022-07-28T08:26:23.378Z,26.83
2022-07-28T08:28:51.027Z,26.77
2022-07-28T08:31:21.941Z,26.71
2022-07-28T08:33:53.926Z,26.73
2022-07-28T08:36:22.260Z,26.79
2022-07-28T08:38:50.074Z,26.86
2022-07-28T08:41:20.543Z,26.89
2022-07-28T08:43:49.895Z,26.98
2022-07-28T08:46:17.538Z,26.94
2022-07-28T08:48:45.909Z,27.02
2022-07-28T08:51:13.454Z,27.12
2022-07-28T08:53:41.179Z,27.13
2022-07-28T08:56:09.687Z,27.14
2022-07-28T08:58:37.689Z,27.21
2022-07-28T09:01:06.927Z,27.26
2022-07-28T09:03:34.787Z,27.26
2022-07-28T09:06:02.234Z,27.22
2022-07-28T09:08:29.510Z,27.16
2022-07-28T09:10:56.971Z,27.18
2022-07-28T09:13:24.310Z,27.20
2022-07-28T09:15:51.650Z,27.19
2022-07-28T09:18:19.034Z,27.17
2022-07-28T09:20:46.415Z,27.13
2022-07-28T09:23:42.961Z,27.17
2022-07-28T09:26:12.592Z,27.22
2022-07-28T09:28:47.125Z,27.27
2022-07-28T09:31:14.471Z,27.31
2022-07-28T09:33:52.459Z,27.33
2022-07-28T09:36:20.739Z,27.44
2022-07-28T09:38:48.425Z,27.48
2022-07-28T09:41:19.737Z,27.57
2022-07-28T09:43:52.533Z,27.53
2022-07-28T09:46:23.348Z,27.56
2022-07-28T09:48:51.264Z,27.62
2022-07-28T09:51:20.270Z,27.68
2022-07-28T09:53:47.613Z,27.67
2022-07-28T09:56:15.058Z,27.64
2022-07-28T09:58:52.827Z,27.68
2022-07-28T10:01:21.185Z,27.70
2022-07-28T10:03:53.408Z,27.71
2022-07-28T10:06:28.418Z,27.70
2022-07-28T10:08:57.399Z,27.72
2022-07-28T10:11:27.315Z,27.80
2022-07-28T10:13:56.124Z,27.82
2022-07-28T10:16:24.515Z,27.82
2022-07-28T10:18:52.241Z,27.90
2022-07-28T10:21:20.568Z,27.95
2022-07-28T10:23:55.233Z,27.99
2022-07-28T10:26:28.524Z,28.03
2022-07-28T10:28:56.622Z,28.15
2022-07-28T10:31:30.324Z,28.24
2022-07-28T10:33:59.562Z,28.30
2022-07-28T10:36:27.988Z,28.44
2022-07-28T10:38:59.614Z,28.49
2022-07-28T10:41:30.019Z,28.53
2022-07-28T10:43:57.538Z,28.46
2022-07-28T10:46:25.636Z,28.56
2022-07-28T10:48:53.008Z,28.62
2022-07-28T10:51:21.159Z,28.70
2022-07-28T10:53:54.492Z,28.76
2022-07-28T10:56:34.297Z,28.73
2022-07-28T10:59:22.226Z,28.76
2022-07-28T11:01:56.294Z,28.80
2022-07-28T11:04:42.342Z,28.77
2022-07-28T11:07:13.606Z,28.69
2022-07-28T11:09:40.942Z,28.75
2022-07-28T11:12:09.688Z,28.89
2022-07-28T11:14:39.198Z,28.92
2022-07-28T11:17:10.427Z,29.11
2022-07-28T11:19:55.860Z,29.34
2022-07-28T11:22:33.630Z,29.32
2022-07-28T11:25:19.609Z,29.36
2022-07-28T11:27:52.725Z,29.56
2022-07-28T11:30:25.952Z,29.80
2022-07-28T11:32:56.032Z,29.84
2022-07-28T11:35:24.472Z,29.72
2022-07-28T11:38:01.020Z,29.54
2022-07-28T11:40:37.851Z,29.39
2022-07-28T11:43:37.785Z,29.32
2022-07-28T11:46:10.027Z,29.38
2022-07-28T11:48:39.898Z,29.48
2022-07-28T11:51:07.332Z,29.60
2022-07-28T11:53:37.274Z,29.93
2022-07-28T11:56:08.539Z,30.09
2022-07-28T11:58:36.133Z,30.36
2022-07-28T12:01:17.737Z,30.42
2022-07-28T12:03:50.382Z,30.36
2022-07-28T12:06:29.226Z,30.33
2022-07-28T12:08:57.065Z,30.41
2022-07-28T12:11:25.536Z,30.46
2022-07-28T12:14:03.008Z,30.56
2022-07-28T12:16:31.647Z,30.61
2022-07-28T12:19:02.713Z,30.52
2022-07-28T12:21:46.192Z,30.51
2022-07-28T12:24:31.759Z,30.55
2022-07-28T12:27:03.930Z,30.59
2022-07-28T12:29:32.281Z,30.67
2022-07-28T12:32:04.835Z,30.65
2022-07-28T12:34:33.478Z,30.73
2022-07-28T12:37:02.470Z,30.77
2022-07-28T12:39:30.973Z,30.94
2022-07-28T12:42:03.558Z,31.09
2022-07-28T12:44:40.689Z,31.19
2022-07-28T12:47:09.585Z,31.35
2022-07-28T12:49:37.532Z,31.30
2022-07-28T12:52:14.613Z,31.31
2022-07-28T12:54:41.880Z,31.43
2022-07-28T12:57:41.212Z,31.68
2022-07-28T13:00:12.178Z,31.56
2022-07-28T13:02:40.804Z,31.59
2022-07-28T13:05:08.374Z,31.76
2022-07-28T13:07:35.738Z,31.90
2022-07-28T13:10:07.014Z,31.89
2022-07-28T13:12:39.799Z,31.88
2022-07-28T13:15:15.732Z,31.83
2022-07-28T13:17:50.654Z,31.86
2022-07-28T13:20:18.613Z,31.84
2022-07-28T13:22:46.706Z,31.86
2022-07-28T13:25:14.555Z,31.69
2022-07-28T13:27:41.922Z,31.52
2022-07-28T13:30:10.271Z,31.65
2022-07-28T13:32:37.620Z,31.85
2022-07-28T13:35:05.874Z,31.76
2022-07-28T13:37:42.288Z,31.79
2022-07-28T13:40:09.667Z,31.82
2022-07-28T13:42:36.946Z,31.70
2022-07-28T13:45:04.980Z,31.81
2022-07-28T13:47:38.784Z,31.75
2022-07-28T13:50:07.325Z,31.90
2022-07-28T13:52:37.562Z,31.92
2022-07-28T13:55:06.234Z,31.94
2022-07-28T13:57:36.454Z,31.88
2022-07-28T14:00:07.506Z,31.88
2022-07-28T14:02:36.698Z,31.87
2022-07-28T14:05:04.529Z,31.94
2022-07-28T14:07:31.873Z,31.86
2022-07-28T14:09:59.571Z,31.86
2022-07-28T14:12:26.852Z,31.76
2022-07-28T14:14:54.108Z,31.85
2022-07-28T14:20:10.441Z,31.95
2022-07-28T14:22:37.695Z,32.02
2022-07-28T14:25:05.125Z,31.99
2022-07-28T14:27:32.661Z,31.97
2022-07-28T14:30:00.032Z,32.05
2022-07-28T14:32:31.867Z,32.01
2022-07-28T14:34:59.184Z,31.94
2022-07-28T14:37:27.031Z,31.97
2022-07-28T14:39:54.323Z,32.09
2022-07-28T14:42:21.571Z,32.13
2022-07-28T14:44:48.847Z,32.13
2022-07-28T14:47:17.688Z,32.19
2022-07-28T14:49:57.251Z,32.17
2022-07-28T14:52:26.431Z,32.01
2022-07-28T14:54:57.356Z,31.99
2022-07-28T14:57:52.003Z,32.02
2022-07-28T15:00:13.435Z,31.94
2022-07-28T15:02:40.959Z,31.79
2022-07-28T15:05:09.000Z,31.61
2022-07-28T15:07:36.290Z,31.54
2022-07-28T15:10:04.634Z,31.71
2022-07-28T15:12:31.975Z,31.77
2022-07-28T15:14:59.506Z,31.94
2022-07-28T15:17:26.787Z,31.95
2022-07-28T15:19:54.192Z,31.95
2022-07-28T15:22:21.477Z,31.99
2022-07-28T15:24:53.752Z,32.16
2022-07-28T15:27:21.062Z,32.26
2022-07-28T15:29:52.065Z,32.25
2022-07-28T15:32:27.151Z,32.28
2022-07-28T15:34:55.803Z,32.28
2022-07-28T15:37:23.247Z,32.14
2022-07-28T15:39:50.527Z,32.23
2022-07-28T15:42:17.878Z,32.32
2022-07-28T15:44:45.166Z,32.38
2022-07-28T15:47:12.446Z,32.46
2022-07-28T15:49:39.819Z,32.51
2022-07-28T15:52:07.099Z,32.62
2022-07-28T15:54:34.385Z,32.61
2022-07-28T15:57:01.749Z,32.41
2022-07-28T15:59:48.608Z,32.40
2022-07-28T16:02:17.815Z,32.36
2022-07-28T16:04:51.234Z,32.15
2022-07-28T16:07:24.558Z,31.91
2022-07-28T16:09:54.281Z,31.77
2022-07-28T16:12:28.111Z,31.57
2022-07-28T16:14:55.638Z,31.53
2022-07-28T16:17:23.101Z,31.46
2022-07-28T16:19:54.078Z,31.49
2022-07-28T16:22:21.606Z,31.68
2022-07-28T16:24:49.300Z,31.88
2022-07-28T16:27:17.044Z,32.13
2022-07-28T16:29:44.871Z,32.20
2022-07-28T16:32:12.822Z,32.38
2022-07-28T16:34:40.112Z,32.63
2022-07-28T16:37:07.619Z,32.55
2022-07-28T16:39:34.963Z,32.56
2022-07-28T16:42:03.012Z,32.65
2022-07-28T16:44:30.787Z,32.71
2022-07-28T16:46:58.274Z,32.43
2022-07-28T16:49:25.731Z,31.99
2022-07-28T16:51:54.578Z,31.59
2022-07-28T16:54:22.146Z,31.34
2022-07-28T16:56:49.776Z,31.39
2022-07-28T16:59:17.254Z,31.82
2022-07-28T17:01:46.499Z,32.10
2022-07-28T17:04:18.119Z,32.16
2022-07-28T17:06:45.784Z,32.07
2022-07-28T17:09:15.885Z,31.44
2022-07-28T17:11:43.345Z,31.00
2022-07-28T17:14:11.264Z,30.70
2022-07-28T17:16:38.709Z,30.46
2022-07-28T17:19:05.996Z,30.30
2022-07-28T17:21:33.329Z,30.14
2022-07-28T17:24:00.569Z,30.01
2022-07-28T17:27:32.511Z,29.90
2022-07-28T17:29:16.601Z,29.82
2022-07-28T17:31:44.244Z,29.70
2022-07-28T17:34:14.105Z,29.63
2022-07-28T17:36:42.197Z,29.53
2022-07-28T17:39:09.792Z,29.42
2022-07-28T17:41:37.332Z,29.32
2022-07-28T17:44:05.723Z,29.23
2022-07-28T17:46:34.945Z,29.11
2022-07-28T17:49:03.097Z,29.02
2022-07-28T17:51:30.854Z,28.93
2022-07-28T17:53:58.279Z,28.87
2022-07-28T17:56:25.928Z,28.79
2022-07-28T17:58:53.488Z,28.72
2022-07-28T18:01:20.868Z,28.61
2022-07-28T18:03:56.496Z,28.52
2022-07-28T18:06:32.860Z,28.43
2022-07-28T18:09:06.854Z,28.37
2022-07-28T18:11:55.706Z,28.28
2022-07-28T18:14:26.661Z,28.21
2022-07-28T18:16:54.350Z,28.17
2022-07-28T18:19:21.743Z,28.11
2022-07-28T18:21:49.037Z,28.03
2022-07-28T18:24:16.975Z,27.85
2022-07-28T18:26:44.634Z,27.67
2022-07-28T18:29:11.883Z,27.47
2022-07-28T18:31:45.476Z,27.37
2022-07-28T18:34:14.111Z,27.28
2022-07-28T18:36:41.686Z,27.16
2022-07-28T18:39:09.007Z,27.04
2022-07-28T18:41:46.942Z,26.98
2022-07-28T18:44:16.380Z,26.96
2022-07-28T18:46:44.156Z,26.95
2022-07-28T18:49:11.629Z,26.90
2022-07-28T18:51:39.006Z,26.86
2022-07-28T18:54:07.060Z,26.89
2022-07-28T18:56:34.378Z,26.88
2022-07-28T18:59:01.646Z,26.85
2022-07-28T19:01:29.032Z,26.84
2022-07-28T19:03:56.384Z,26.76
2022-07-28T19:06:24.399Z,26.74
2022-07-28T19:08:51.685Z,26.76
2022-07-28T19:11:20.029Z,26.74
2022-07-28T19:13:48.055Z,26.68
2022-07-28T19:16:15.383Z,26.64
2022-07-28T19:18:42.723Z,26.64
2022-07-28T19:21:10.028Z,26.63
2022-07-28T19:23:37.298Z,26.62
2022-07-28T19:26:04.627Z,26.61
2022-07-28T19:28:31.999Z,26.58
2022-07-28T19:31:01.762Z,26.62
2022-07-28T19:33:43.578Z,26.62
2022-07-28T19:36:13.506Z,26.62
2022-07-28T19:38:41.347Z,26.61
2022-07-28T19:41:09.100Z,26.61
2022-07-28T19:43:36.441Z,26.59
2022-07-28T19:46:03.792Z,26.58
2022-07-28T19:48:31.141Z,26.51
2022-07-28T19:50:58.431Z,26.38
2022-07-28T19:53:31.802Z,26.31
2022-07-28T19:55:59.736Z,26.25
2022-07-28T19:58:28.071Z,26.21
2022-07-28T20:00:56.401Z,26.16
2022-07-28T20:04:03.731Z,26.03
2022-07-28T20:06:11.822Z,25.90
2022-07-28T20:08:39.215Z,25.85
2022-07-28T20:11:06.976Z,25.75
2022-07-28T20:13:34.377Z,25.70
2022-07-28T20:16:01.691Z,25.61
2022-07-28T20:18:28.997Z,25.58
2022-07-28T20:20:56.282Z,25.54
2022-07-28T20:23:23.909Z,25.52
2022-07-28T20:25:51.318Z,25.50
2022-07-28T20:28:18.645Z,25.47
2022-07-28T20:30:45.986Z,25.44
2022-07-28T20:33:13.272Z,25.44
2022-07-28T20:35:40.557Z,25.42
2022-07-28T20:38:08.426Z,25.39
2022-07-28T20:40:35.902Z,25.37
2022-07-28T20:43:03.296Z,25.32
2022-07-28T20:45:31.811Z,25.25
2022-07-28T20:47:59.415Z,25.23
2022-07-28T20:50:26.785Z,25.19
2022-07-28T20:52:54.057Z,25.17
2022-07-28T20:55:21.480Z,25.15
2022-07-28T20:57:53.809Z,25.13
2022-07-28T21:00:21.755Z,25.12
2022-07-28T21:02:49.141Z,25.07
2022-07-28T21:05:26.575Z,25.02
2022-07-28T21:08:05.802Z,24.93
2022-07-28T21:10:34.197Z,24.86
2022-07-28T21:13:01.529Z,24.76
2022-07-28T21:15:29.423Z,24.73
2022-07-28T21:17:57.261Z,24.73
2022-07-28T21:20:25.087Z,24.75
2022-07-28T21:22:52.460Z,24.69
2022-07-28T21:25:19.928Z,24.65
2022-07-28T21:28:05.978Z,24.62
2022-07-28T21:30:33.327Z,24.60
2022-07-28T21:33:00.703Z,24.59
2022-07-28T21:35:28.027Z,24.56
2022-07-28T21:37:55.345Z,24.55
2022-07-28T21:40:22.656Z,24.54
2022-07-28T21:42:49.991Z,24.55
2022-07-28T21:45:17.279Z,24.61
2022-07-28T21:47:44.598Z,24.64
2022-07-28T21:50:11.913Z,24.64
2022-07-28T21:52:39.406Z,24.63
2022-07-28T21:55:07.636Z,24.62
2022-07-28T21:57:35.224Z,24.63
2022-07-28T22:00:03.005Z,24.60
2022-07-28T22:02:30.286Z,24.58
2022-07-28T22:05:00.264Z,24.51
2022-07-28T22:07:27.684Z,24.50
2022-07-28T22:09:54.983Z,24.47
2022-07-28T22:12:22.287Z,24.43
2022-07-28T22:14:49.554Z,24.40
2022-07-28T22:17:17.747Z,24.35
2022-07-28T22:19:45.106Z,24.28
2022-07-28T22:22:12.379Z,24.24
2022-07-28T22:24:39.662Z,24.22
2022-07-28T22:27:07.006Z,24.21
2022-07-28T22:29:34.247Z,24.17
2022-07-28T22:32:01.652Z,24.12
2022-07-28T22:34:29.034Z,24.06
2022-07-28T22:36:56.398Z,24.02
2022-07-28T22:39:23.638Z,24.02
2022-07-28T22:41:50.929Z,23.99
2022-07-28T22:44:18.580Z,23.93
2022-07-28T22:46:46.707Z,23.96
2022-07-28T22:49:14.065Z,24.03
2022-07-28T22:51:47.834Z,24.12
2022-07-28T22:54:16.325Z,24.08
2022-07-28T22:56:43.839Z,24.03
2022-07-28T22:59:11.379Z,23.97
2022-07-28T23:01:41.815Z,23.92
2022-07-28T23:04:09.130Z,23.88
2022-07-28T23:06:36.415Z,23.83
2022-07-28T23:09:03.795Z,23.78
2022-07-28T23:11:31.114Z,23.74
2022-07-28T23:13:58.398Z,23.68
2022-07-28T23:16:25.709Z,23.63
2022-07-28T23:18:52.995Z,23.60
2022-07-28T23:21:20.519Z,23.60
2022-07-28T23:23:47.802Z,23.56
2022-07-28T23:26:15.138Z,23.50
2022-07-28T23:28:42.498Z,23.37
2022-07-28T23:31:09.805Z,23.36
2022-07-28T23:33:55.586Z,23.40
2022-07-28T23:36:26.942Z,23.45
2022-07-28T23:38:58.834Z,23.45
2022-07-28T23:41:26.878Z,23.44
2022-07-28T23:43:54.254Z,23.44
2022-07-28T23:46:21.789Z,23.36
2022-07-28T23:48:49.969Z,23.32
2022-07-28T23:51:17.359Z,23.26
2022-07-28T23:53:44.643Z,23.19
2022-07-28T23:56:13.683Z,23.13
2022-07-28T23:58:41.284Z,23.12
